createdAt,value
2022-11-12T00:02:25.738Z,60.99
2022-11-12T00:07:32.776Z,58.23
2022-11-12T00:12:39.999Z,61.48
2022-11-12T00:17:47.413Z,60.49
2022-11-12T00:22:54.481Z,59.99
2022-11-12T00:28:01.643Z,60.74
2022-11-12T00:33:08.959Z,58.48
2022-11-12T00:38:16.016Z,60.74
2022-11-12T00:43:23.493Z,60.24
2022-11-12T00:48:30.875Z,36.73
2022-11-12T00:53:37.992Z,35.87
2022-11-12T00:58:45.224Z,34.41
2022-11-12T01:03:52.642Z,34.12
2022-11-12T01:08:59.683Z,36.73
2022-11-12T01:14:06.881Z,37.02
2022-11-12T01:19:14.179Z,38.45
2022-11-12T01:24:21.208Z,37.88
2022-11-12T01:29:28.441Z,37.88
2022-11-12T01:34:35.810Z,38.73
2022-11-12T01:39:42.887Z,35.87
2022-11-12T01:44:50.117Z,37.59
2022-11-12T01:49:59.253Z,40.14
2022-11-12T01:55:06.341Z,37.88
2022-11-12T02:00:13.654Z,37.88
2022-11-12T02:05:21.008Z,38.16
2022-11-12T02:10:28.209Z,37.30
2022-11-12T02:15:38.331Z,37.30
2022-11-12T02:20:45.708Z,39.30
2022-11-12T02:25:52.763Z,37.30
2022-11-12T02:31:00.016Z,37.59
2022-11-12T02:36:07.285Z,38.45
2022-11-12T02:41:15.416Z,37.30
2022-11-12T02:46:24.215Z,38.16
2022-11-12T02:51:31.569Z,37.88
2022-11-12T02:56:38.672Z,37.30
2022-11-12T03:01:45.877Z,37.30
2022-11-12T03:06:53.231Z,38.16
2022-11-12T03:12:00.501Z,37.88
2022-11-12T03:17:07.789Z,38.45
2022-11-12T03:22:15.131Z,38.45
2022-11-12T03:27:22.228Z,37.88
2022-11-12T03:32:29.423Z,37.59
2022-11-12T03:37:36.811Z,39.30
2022-11-12T03:42:43.937Z,38.45
2022-11-12T03:47:51.253Z,36.73
2022-11-12T03:52:58.672Z,37.88
2022-11-12T03:58:05.747Z,38.45
2022-11-12T04:03:13.793Z,39.58
2022-11-12T04:08:21.207Z,37.30
2022-11-12T04:13:28.295Z,37.88
2022-11-12T04:18:35.619Z,36.73
2022-11-12T04:23:42.952Z,37.30
2022-11-12T04:28:50.150Z,39.30
2022-11-12T04:33:57.362Z,39.30
2022-11-12T04:39:04.688Z,38.16
2022-11-12T04:44:11.800Z,36.73
2022-11-12T04:49:19.029Z,37.59
2022-11-12T04:54:29.422Z,37.59
2022-11-12T04:59:36.524Z,36.44
2022-11-12T05:04:43.741Z,37.88
2022-11-12T05:09:51.128Z,37.88
2022-11-12T05:14:58.298Z,35.58
2022-11-12T05:20:05.561Z,40.14
2022-11-12T05:25:12.976Z,37.88
2022-11-12T05:30:20.081Z,38.16
2022-11-12T05:35:27.359Z,37.59
2022-11-12T05:40:34.777Z,38.45
2022-11-12T05:45:43.926Z,39.30
2022-11-12T05:51:11.796Z,35.58
2022-11-12T05:55:58.448Z,38.45
2022-11-12T06:01:05.504Z,37.30
2022-11-12T06:06:12.720Z,37.88
2022-11-12T06:11:20.025Z,38.45
2022-11-12T06:16:27.123Z,37.59
2022-11-12T06:21:34.381Z,37.02
2022-11-12T06:26:41.752Z,38.45
2022-11-12T06:31:48.937Z,38.45
2022-11-12T06:36:56.170Z,39.58
2022-11-12T06:42:03.516Z,37.02
2022-11-12T06:47:10.637Z,37.88
2022-11-12T06:52:17.859Z,38.16
2022-11-12T06:57:25.180Z,38.45
2022-11-12T07:02:32.310Z,38.45
2022-11-12T07:07:39.538Z,38.73
2022-11-12T07:12:53.157Z,40.14
2022-11-12T07:17:55.062Z,39.01
2022-11-12T07:23:02.326Z,38.73
2022-11-12T07:28:10.269Z,38.73
2022-11-12T07:33:17.449Z,39.01
2022-11-12T07:38:25.006Z,38.73
2022-11-12T07:43:32.048Z,38.45
2022-11-12T07:48:39.174Z,39.01
2022-11-12T07:53:46.421Z,39.30
2022-11-12T07:58:53.786Z,39.30
2022-11-12T08:04:00.872Z,39.86
2022-11-12T08:09:08.077Z,39.58
2022-11-12T08:14:15.464Z,39.58
2022-11-12T08:19:22.471Z,39.30
2022-11-12T08:24:29.727Z,61.48
2022-11-12T08:29:38.839Z,60.99
2022-11-12T08:34:45.941Z,61.73
2022-11-12T08:39:53.125Z,61.48
2022-11-12T08:45:02.559Z,61.48
2022-11-12T08:50:11.574Z,60.99
2022-11-12T08:55:18.803Z,62.97
2022-11-12T09:00:26.215Z,60.49
2022-11-12T09:05:33.330Z,61.48
2022-11-12T09:10:40.573Z,61.48
2022-11-12T09:15:47.943Z,63.22
2022-11-12T09:20:55.046Z,61.73
2022-11-12T09:26:02.296Z,62.72
2022-11-12T09:31:09.614Z,60.49
2022-11-12T09:36:16.728Z,61.48
2022-11-12T09:41:23.967Z,61.24
2022-11-12T09:46:31.307Z,60.74
2022-11-12T09:51:38.417Z,60.74
2022-11-12T09:56:45.635Z,59.74
2022-11-12T10:01:53.046Z,62.48
2022-11-12T10:07:00.112Z,63.47
2022-11-12T10:12:09.308Z,60.24
2022-11-12T10:17:18.500Z,60.99
2022-11-12T10:22:25.684Z,60.24
2022-11-12T10:27:32.905Z,61.24
2022-11-12T10:32:40.259Z,59.99
2022-11-12T10:37:47.365Z,62.72
2022-11-12T10:42:54.645Z,59.99
2022-11-12T10:48:01.989Z,61.98
2022-11-12T10:53:12.965Z,60.99
2022-11-12T10:58:20.139Z,58.48
2022-11-12T11:03:27.486Z,60.74
2022-11-12T11:08:36.575Z,58.98
2022-11-12T11:13:41.830Z,60.49
2022-11-12T11:18:52.231Z,60.99
2022-11-12T11:23:59.383Z,61.73
2022-11-12T11:29:06.599Z,60.49
2022-11-12T11:34:13.875Z,60.24
2022-11-12T11:39:20.986Z,58.48
2022-11-12T11:44:28.220Z,59.23
2022-11-12T11:49:41.445Z,59.99
2022-11-12T11:54:49.934Z,59.49
2022-11-12T11:59:57.179Z,57.72
2022-11-12T12:05:05.019Z,60.99
2022-11-12T12:10:12.095Z,62.23
2022-11-12T12:15:19.785Z,60.49
2022-11-12T12:20:28.915Z,60.49
2022-11-12T12:25:36.052Z,60.99
2022-11-12T12:30:43.286Z,60.99
2022-11-12T12:35:50.612Z,62.97
2022-11-12T12:40:57.770Z,62.97
2022-11-12T12:46:05.016Z,60.99
2022-11-12T12:51:12.442Z,60.99
2022-11-12T12:56:19.509Z,60.49
2022-11-12T13:01:26.726Z,60.74
2022-11-12T13:06:34.116Z,60.49
2022-11-12T13:11:42.032Z,61.48
2022-11-12T13:16:49.266Z,60.99
2022-11-12T13:21:56.783Z,59.23
2022-11-12T13:27:03.868Z,59.23
2022-11-12T13:32:11.044Z,62.97
2022-11-12T13:37:18.383Z,60.74
2022-11-12T13:42:25.424Z,60.74
2022-11-12T13:47:32.686Z,58.48
2022-11-12T13:52:40.000Z,59.74
2022-11-12T13:57:47.066Z,63.22
2022-11-12T14:02:54.254Z,63.22
2022-11-12T14:08:01.617Z,60.99
2022-11-12T14:13:08.752Z,60.49
2022-11-12T14:18:16.837Z,60.99
2022-11-12T14:23:25.331Z,58.48
2022-11-12T14:28:31.303Z,60.74
2022-11-12T14:33:38.595Z,62.97
2022-11-12T14:38:45.954Z,62.97
2022-11-12T14:44:11.013Z,59.99
2022-11-12T14:49:01.838Z,58.73
2022-11-12T14:54:13.211Z,60.24
2022-11-12T14:59:20.406Z,60.74
2022-11-12T15:04:27.571Z,61.24
2022-11-12T15:09:35.060Z,60.99
2022-11-12T15:14:42.160Z,59.23
2022-11-12T15:19:52.919Z,61.24
2022-11-12T15:25:02.226Z,62.97
2022-11-12T15:30:09.339Z,58.98
2022-11-12T15:35:16.615Z,58.48
2022-11-12T15:40:24.053Z,60.49
2022-11-12T15:45:31.239Z,61.24
2022-11-12T15:50:38.588Z,61.24
2022-11-12T15:55:45.976Z,59.23
2022-11-12T16:00:53.494Z,62.23
2022-11-12T16:06:05.679Z,62.97
2022-11-12T16:11:08.099Z,61.73
2022-11-12T16:16:15.881Z,60.99
2022-11-12T16:21:24.871Z,60.99
2022-11-12T16:26:32.302Z,60.99
2022-11-12T16:31:40.238Z,60.24
2022-11-12T16:36:47.402Z,60.49
2022-11-12T16:41:54.710Z,60.24
2022-11-12T16:47:08.343Z,60.24
2022-11-12T16:52:15.580Z,60.24
2022-11-12T16:57:22.935Z,60.99
2022-11-12T17:02:30.144Z,57.72
2022-11-12T17:07:37.410Z,60.24
2022-11-12T17:12:44.763Z,60.49
2022-11-12T17:17:51.965Z,60.99
2022-11-12T17:22:59.433Z,60.49
2022-11-12T17:28:07.178Z,58.48
2022-11-12T17:33:14.497Z,59.23
2022-11-12T17:38:21.775Z,61.24
2022-11-12T17:43:29.524Z,61.24
2022-11-12T17:48:36.307Z,60.74
2022-11-12T17:53:44.505Z,60.24
2022-11-12T17:58:52.102Z,60.74
2022-11-12T18:03:59.536Z,62.97
2022-11-12T18:09:08.173Z,60.24
2022-11-12T18:14:15.570Z,59.74
2022-11-12T18:19:22.733Z,60.74
2022-11-12T18:24:30.195Z,63.22
2022-11-12T18:29:37.923Z,57.97
2022-11-12T18:34:45.392Z,60.49
2022-11-12T18:39:53.346Z,60.49
2022-11-12T18:45:00.872Z,60.49
2022-11-12T18:50:09.046Z,60.74
2022-11-12T18:55:15.341Z,62.48
2022-11-12T19:00:22.718Z,59.49
2022-11-12T19:05:30.185Z,60.99
2022-11-12T19:10:37.594Z,60.49
2022-11-12T19:15:44.972Z,60.24
2022-11-12T19:20:52.135Z,59.49
2022-11-12T19:25:59.621Z,59.99
2022-11-12T19:31:07.289Z,60.24
2022-11-12T19:36:14.551Z,58.48
2022-11-12T19:41:21.802Z,60.49
2022-11-12T19:46:29.268Z,59.99
2022-11-12T19:51:36.379Z,62.97
2022-11-12T19:56:43.687Z,61.73
2022-11-12T20:01:51.346Z,59.74
2022-11-12T20:06:58.948Z,60.24
2022-11-12T20:12:06.219Z,60.24
2022-11-12T20:17:13.530Z,58.23
2022-11-12T20:22:20.923Z,59.74
2022-11-12T20:27:28.267Z,59.49
2022-11-12T20:32:35.812Z,62.23
2022-11-12T20:37:47.558Z,60.49
2022-11-12T20:42:54.892Z,61.24
2022-11-12T20:48:02.592Z,60.99
2022-11-12T20:53:09.904Z,60.99
2022-11-12T20:58:17.437Z,60.49
2022-11-12T21:03:24.825Z,60.99
2022-11-12T21:08:32.216Z,58.73
2022-11-12T21:13:39.658Z,59.99
2022-11-12T21:18:47.075Z,60.74
2022-11-12T21:23:56.753Z,60.74
2022-11-12T21:29:02.791Z,60.74
2022-11-12T21:34:10.108Z,58.23
2022-11-12T21:39:17.201Z,60.24
2022-11-12T21:44:24.395Z,60.99
2022-11-12T21:49:32.841Z,62.48
2022-11-12T21:54:39.996Z,61.73
2022-11-12T21:59:47.164Z,62.48
2022-11-12T22:04:54.530Z,59.99
2022-11-12T22:10:01.659Z,63.22
2022-11-12T22:15:08.880Z,59.99
2022-11-12T22:20:16.991Z,63.22
2022-11-12T22:25:24.035Z,60.99
2022-11-12T22:30:31.225Z,60.49
2022-11-12T22:35:38.601Z,59.74
2022-11-12T22:40:45.707Z,61.24
2022-11-12T22:45:52.913Z,60.24
2022-11-12T22:51:00.348Z,59.74
2022-11-12T22:56:07.323Z,58.23
2022-11-12T23:01:14.596Z,63.22
2022-11-12T23:06:21.886Z,61.98
2022-11-12T23:11:29.507Z,62.72
2022-11-12T23:16:37.994Z,60.74
2022-11-12T23:21:45.320Z,63.22
2022-11-12T23:26:52.404Z,60.49
2022-11-12T23:32:00.225Z,59.99
2022-11-12T23:37:07.622Z,58.23
2022-11-12T23:42:14.704Z,59.99
2022-11-12T23:47:21.942Z,57.97
2022-11-12T23:52:29.322Z,59.99
2022-11-12T23:57:36.367Z,60.49
